Tinsdal — V2AJ2 — position and weather

sailwx.info

Track history (hours):
 
Tides and Currents Weather Stations Pressure Air Temp Water Temp Dewpoint Dewpoint Depression Visibility Wind Speed Wind Dir Waves Ship Positions

Tinsdal

Last reported at 2014-Dec-19 10:25 UTC. Time now 2014-Dec-20 22:17 UTC.
Position N 37°47' E 020°23'.

Length 90 m; draft 5 m.

Type: Cargo ship. MMSI: 305573000.

Date/timePositionNaut miles runAvg speedWind from/ knotsBaromVisibWave heightAir tempDewpointWater temp
2014-Dec-19 10:25N 37°47' E 020°23'169 8.3
2014-Dec-18 14:05N 36°44' E 023°40'610.1
2014-Dec-18 13:32N 36°48' E 023°45'1210.0
2014-Dec-18 12:20N 36°55' E 023°57'9 9.6
2014-Dec-18 11:26N 37°01' E 024°05'20 9.9
2014-Dec-18 09:23N 37°13' E 024°26'810.3
2014-Dec-18 08:33N 37°16' E 024°36'1010.0
2014-Dec-18 07:32N 37°19' E 024°48'1010.3
2014-Dec-18 06:33N 37°22' E 025°00'3 2.5
2014-Dec-18 05:28N 37°25' E 024°59'0 0.0
2014-Dec-18 04:28N 37°25' E 024°59'0 0.1
2014-Dec-18 03:28N 37°25' E 024°59'1 1.5
2014-Dec-18 02:33N 37°25' E 025°00'7 7.1
2014-Dec-18 01:33N 37°31' E 024°57'1010.1
2014-Dec-18 00:33N 37°32' E 024°45'2 1.6
2014-Dec-17 23:33N 37°34' E 024°44'2 1.9
2014-Dec-17 22:33N 37°34' E 024°47'7 6.4
2014-Dec-17 21:29N 37°40' E 024°46'1010.2
2014-Dec-17 20:32N 37°49' E 024°40'260 8.9
2014-Dec-16 15:22N 40°54' E 028°36'910.1
2014-Dec-16 14:31N 40°55' E 028°47'1010.1
2014-Dec-16 13:32N 40°59' E 028°59'  
Track history (hours):
 
Tides and Currents Weather Stations Pressure Air Temp Water Temp Dewpoint Dewpoint Depression Visibility Wind Speed Wind Dir Waves Ship Positions

Tinsdal

Last reported at 2014-Dec-19 10:25 UTC. Time now 2014-Dec-20 22:17 UTC.
Position N 37°47' E 020°23'.

Length 90 m; draft 5 m.

Type: Cargo ship. MMSI: 305573000.

Date/timePositionNaut miles runAvg speedWind from/ knotsBaromVisibWave heightAir tempDewpointWater temp
2014-Dec-19 10:25N 37°47' E 020°23'169 8.3
2014-Dec-18 14:05N 36°44' E 023°40'610.1
2014-Dec-18 13:32N 36°48' E 023°45'1210.0
2014-Dec-18 12:20N 36°55' E 023°57'9 9.6
2014-Dec-18 11:26N 37°01' E 024°05'20 9.9
2014-Dec-18 09:23N 37°13' E 024°26'810.3
2014-Dec-18 08:33N 37°16' E 024°36'1010.0
2014-Dec-18 07:32N 37°19' E 024°48'1010.3
2014-Dec-18 06:33N 37°22' E 025°00'3 2.5
2014-Dec-18 05:28N 37°25' E 024°59'0 0.0
2014-Dec-18 04:28N 37°25' E 024°59'0 0.1
2014-Dec-18 03:28N 37°25' E 024°59'1 1.5
2014-Dec-18 02:33N 37°25' E 025°00'7 7.1
2014-Dec-18 01:33N 37°31' E 024°57'1010.1
2014-Dec-18 00:33N 37°32' E 024°45'2 1.6
2014-Dec-17 23:33N 37°34' E 024°44'2 1.9
2014-Dec-17 22:33N 37°34' E 024°47'7 6.4
2014-Dec-17 21:29N 37°40' E 024°46'1010.2
2014-Dec-17 20:32N 37°49' E 024°40'260 8.9
2014-Dec-16 15:22N 40°54' E 028°36'910.1
2014-Dec-16 14:31N 40°55' E 028°47'1010.1
2014-Dec-16 13:32N 40°59' E 028°59'  

Dump ship's entire track history